sensor_id;sensor_type;location;lat;lon;timestamp;P1;durP1;ratioP1;P2;durP2;ratioP2
2021;SDS011;1015;49.756;6.994;2023-04-24T00:01:42;0.90;;;0.90;;
2021;SDS011;1015;49.756;6.994;2023-04-24T00:04:10;0.90;;;0.77;;
2021;SDS011;1015;49.756;6.994;2023-04-24T00:06:39;1.33;;;0.90;;
2021;SDS011;1015;49.756;6.994;2023-04-24T00:09:07;1.33;;;1.00;;
2021;SDS011;1015;49.756;6.994;2023-04-24T00:11:37;0.70;;;0.70;;
2021;SDS011;1015;49.756;6.994;2023-04-24T00:14:04;1.33;;;0.80;;
2021;SDS011;1015;49.756;6.994;2023-04-24T00:16:31;0.70;;;0.70;;
2021;SDS011;1015;49.756;6.994;2023-04-24T00:18:59;1.40;;;1.30;;
2021;SDS011;1015;49.756;6.994;2023-04-24T00:21:26;1.10;;;1.00;;
2021;SDS011;1015;49.756;6.994;2023-04-24T00:23:55;1.53;;;1.10;;
2021;SDS011;1015;49.756;6.994;2023-04-24T00:26:22;1.43;;;1.33;;
2021;SDS011;1015;49.756;6.994;2023-04-24T00:28:50;1.40;;;1.30;;
2021;SDS011;1015;49.756;6.994;2023-04-24T00:31:18;1.57;;;1.33;;
2021;SDS011;1015;49.756;6.994;2023-04-24T00:33:45;1.63;;;1.53;;
2021;SDS011;1015;49.756;6.994;2023-04-24T00:36:12;2.00;;;1.50;;
2021;SDS011;1015;49.756;6.994;2023-04-24T00:38:39;1.50;;;1.40;;
2021;SDS011;1015;49.756;6.994;2023-04-24T00:41:06;2.30;;;1.80;;
2021;SDS011;1015;49.756;6.994;2023-04-24T00:43:34;2.80;;;1.87;;
2021;SDS011;1015;49.756;6.994;2023-04-24T00:46:02;2.13;;;1.93;;
2021;SDS011;1015;49.756;6.994;2023-04-24T00:48:30;2.00;;;1.90;;
2021;SDS011;1015;49.756;6.994;2023-04-24T00:50:58;2.07;;;1.97;;
2021;SDS011;1015;49.756;6.994;2023-04-24T00:53:25;2.50;;;2.27;;
2021;SDS011;1015;49.756;6.994;2023-04-24T00:55:52;2.30;;;2.10;;
2021;SDS011;1015;49.756;6.994;2023-04-24T00:58:20;2.00;;;1.90;;
2021;SDS011;1015;49.756;6.994;2023-04-24T01:00:47;2.60;;;2.40;;
2021;SDS011;1015;49.756;6.994;2023-04-24T01:03:17;2.60;;;2.40;;
2021;SDS011;1015;49.756;6.994;2023-04-24T01:05:44;2.33;;;2.23;;
2021;SDS011;1015;49.756;6.994;2023-04-24T01:08:11;2.93;;;2.70;;
2021;SDS011;1015;49.756;6.994;2023-04-24T01:10:39;3.10;;;2.90;;
2021;SDS011;1015;49.756;6.994;2023-04-24T01:13:07;3.53;;;3.23;;
2021;SDS011;1015;49.756;6.994;2023-04-24T01:15:35;4.77;;;3.80;;
2021;SDS011;1015;49.756;6.994;2023-04-24T01:18:02;4.17;;;3.80;;
2021;SDS011;1015;49.756;6.994;2023-04-24T01:20:30;4.70;;;4.10;;
2021;SDS011;1015;49.756;6.994;2023-04-24T01:22:59;4.30;;;3.93;;
2021;SDS011;1015;49.756;6.994;2023-04-24T01:25:26;4.70;;;4.30;;
2021;SDS011;1015;49.756;6.994;2023-04-24T01:27:54;5.13;;;4.53;;
2021;SDS011;1015;49.756;6.994;2023-04-24T01:30:22;5.77;;;5.27;;
2021;SDS011;1015;49.756;6.994;2023-04-24T01:32:49;5.60;;;4.63;;
2021;SDS011;1015;49.756;6.994;2023-04-24T01:35:16;6.00;;;5.13;;
2021;SDS011;1015;49.756;6.994;2023-04-24T01:37:44;7.03;;;6.23;;
2021;SDS011;1015;49.756;6.994;2023-04-24T01:40:12;5.73;;;5.10;;
2021;SDS011;1015;49.756;6.994;2023-04-24T01:42:40;5.90;;;5.40;;
2021;SDS011;1015;49.756;6.994;2023-04-24T01:45:08;9.10;;;6.00;;
2021;SDS011;1015;49.756;6.994;2023-04-24T01:47:37;8.53;;;6.33;;
2021;SDS011;1015;49.756;6.994;2023-04-24T01:50:05;7.10;;;6.40;;
2021;SDS011;1015;49.756;6.994;2023-04-24T01:52:32;9.07;;;5.77;;
2021;SDS011;1015;49.756;6.994;2023-04-24T01:55:01;7.90;;;6.53;;
2021;SDS011;1015;49.756;6.994;2023-04-24T01:57:30;7.57;;;6.77;;
2021;SDS011;1015;49.756;6.994;2023-04-24T01:59:57;7.27;;;6.20;;
2021;SDS011;1015;49.756;6.994;2023-04-24T02:02:25;7.17;;;6.47;;
2021;SDS011;1015;49.756;6.994;2023-04-24T02:04:53;8.43;;;6.37;;
2021;SDS011;1015;49.756;6.994;2023-04-24T02:07:21;7.23;;;6.43;;
2021;SDS011;1015;49.756;6.994;2023-04-24T02:09:48;8.33;;;6.57;;
2021;SDS011;1015;49.756;6.994;2023-04-24T02:12:15;7.43;;;6.60;;
2021;SDS011;1015;49.756;6.994;2023-04-24T02:14:44;6.70;;;6.00;;
2021;SDS011;1015;49.756;6.994;2023-04-24T02:17:12;7.97;;;6.53;;
2021;SDS011;1015;49.756;6.994;2023-04-24T02:19:40;11.20;;;6.53;;
2021;SDS011;1015;49.756;6.994;2023-04-24T02:22:07;8.30;;;5.70;;
2021;SDS011;1015;49.756;6.994;2023-04-24T02:24:35;7.97;;;6.63;;
2021;SDS011;1015;49.756;6.994;2023-04-24T02:27:02;7.77;;;5.97;;
2021;SDS011;1015;49.756;6.994;2023-04-24T02:29:30;7.73;;;6.47;;
2021;SDS011;1015;49.756;6.994;2023-04-24T02:31:58;7.10;;;6.40;;
2021;SDS011;1015;49.756;6.994;2023-04-24T02:34:25;8.40;;;6.90;;
2021;SDS011;1015;49.756;6.994;2023-04-24T02:36:53;8.20;;;6.47;;
2021;SDS011;1015;49.756;6.994;2023-04-24T02:39:20;8.63;;;6.87;;
2021;SDS011;1015;49.756;6.994;2023-04-24T02:41:47;8.33;;;6.67;;
2021;SDS011;1015;49.756;6.994;2023-04-24T02:44:14;10.17;;;8.30;;
2021;SDS011;1015;49.756;6.994;2023-04-24T02:46:42;9.77;;;7.57;;
2021;SDS011;1015;49.756;6.994;2023-04-24T02:49:11;8.47;;;7.57;;
2021;SDS011;1015;49.756;6.994;2023-04-24T02:51:38;10.00;;;7.30;;
2021;SDS011;1015;49.756;6.994;2023-04-24T02:54:06;8.10;;;6.90;;
2021;SDS011;1015;49.756;6.994;2023-04-24T02:56:34;9.07;;;8.10;;
2021;SDS011;1015;49.756;6.994;2023-04-24T02:59:01;10.90;;;7.43;;
2021;SDS011;1015;49.756;6.994;2023-04-24T03:01:29;9.77;;;7.17;;
2021;SDS011;1015;49.756;6.994;2023-04-24T03:03:56;7.57;;;6.73;;
2021;SDS011;1015;49.756;6.994;2023-04-24T03:06:25;8.17;;;6.90;;
2021;SDS011;1015;49.756;6.994;2023-04-24T03:08:53;8.30;;;6.80;;
2021;SDS011;1015;49.756;6.994;2023-04-24T03:11:20;9.27;;;7.40;;
2021;SDS011;1015;49.756;6.994;2023-04-24T03:13:47;8.27;;;7.30;;
2021;SDS011;1015;49.756;6.994;2023-04-24T03:16:15;11.37;;;7.80;;
2021;SDS011;1015;49.756;6.994;2023-04-24T03:18:42;8.50;;;6.87;;
2021;SDS011;1015;49.756;6.994;2023-04-24T03:21:09;9.10;;;7.07;;
2021;SDS011;1015;49.756;6.994;2023-04-24T03:23:38;8.77;;;7.00;;
2021;SDS011;1015;49.756;6.994;2023-04-24T03:26:05;8.83;;;7.33;;
2021;SDS011;1015;49.756;6.994;2023-04-24T03:28:32;9.23;;;7.80;;
2021;SDS011;1015;49.756;6.994;2023-04-24T03:30:59;8.60;;;7.43;;
2021;SDS011;1015;49.756;6.994;2023-04-24T03:33:26;10.40;;;7.57;;
2021;SDS011;1015;49.756;6.994;2023-04-24T03:35:53;9.50;;;7.90;;
2021;SDS011;1015;49.756;6.994;2023-04-24T03:38:21;10.20;;;7.77;;
2021;SDS011;1015;49.756;6.994;2023-04-24T03:40:49;8.40;;;7.40;;
2021;SDS011;1015;49.756;6.994;2023-04-24T03:43:16;10.83;;;8.50;;
2021;SDS011;1015;49.756;6.994;2023-04-24T03:45:44;12.63;;;8.27;;
2021;SDS011;1015;49.756;6.994;2023-04-24T03:48:11;10.50;;;8.43;;
2021;SDS011;1015;49.756;6.994;2023-04-24T03:50:38;13.43;;;9.00;;
2021;SDS011;1015;49.756;6.994;2023-04-24T03:53:05;14.33;;;10.30;;
2021;SDS011;1015;49.756;6.994;2023-04-24T03:55:33;11.80;;;9.27;;
2021;SDS011;1015;49.756;6.994;2023-04-24T03:58:01;13.30;;;10.27;;
2021;SDS011;1015;49.756;6.994;2023-04-24T04:00:29;13.20;;;10.63;;
2021;SDS011;1015;49.756;6.994;2023-04-24T04:02:58;17.47;;;11.53;;
2021;SDS011;1015;49.756;6.994;2023-04-24T04:05:25;15.83;;;10.83;;
2021;SDS011;1015;49.756;6.994;2023-04-24T04:07:52;16.80;;;10.90;;
2021;SDS011;1015;49.756;6.994;2023-04-24T04:10:20;15.37;;;10.70;;
2021;SDS011;1015;49.756;6.994;2023-04-24T04:12:47;15.57;;;10.83;;
2021;SDS011;1015;49.756;6.994;2023-04-24T04:15:16;16.20;;;11.40;;
2021;SDS011;1015;49.756;6.994;2023-04-24T04:17:43;11.90;;;9.83;;
2021;SDS011;1015;49.756;6.994;2023-04-24T04:20:11;13.07;;;10.60;;
2021;SDS011;1015;49.756;6.994;2023-04-24T04:22:38;15.27;;;10.33;;
2021;SDS011;1015;49.756;6.994;2023-04-24T04:25:05;14.63;;;10.57;;
2021;SDS011;1015;49.756;6.994;2023-04-24T04:27:33;16.07;;;10.93;;
2021;SDS011;1015;49.756;6.994;2023-04-24T04:30:01;16.73;;;11.30;;
2021;SDS011;1015;49.756;6.994;2023-04-24T04:32:31;16.73;;;10.37;;
2021;SDS011;1015;49.756;6.994;2023-04-24T04:34:59;13.67;;;11.10;;
2021;SDS011;1015;49.756;6.994;2023-04-24T04:37:28;11.80;;;8.80;;
2021;SDS011;1015;49.756;6.994;2023-04-24T04:39:56;11.60;;;9.43;;
2021;SDS011;1015;49.756;6.994;2023-04-24T04:42:24;12.60;;;8.83;;
2021;SDS011;1015;49.756;6.994;2023-04-24T04:44:52;11.00;;;8.53;;
2021;SDS011;1015;49.756;6.994;2023-04-24T04:47:19;9.13;;;7.87;;
2021;SDS011;1015;49.756;6.994;2023-04-24T04:49:49;10.93;;;8.40;;
2021;SDS011;1015;49.756;6.994;2023-04-24T04:52:17;8.10;;;7.10;;
2021;SDS011;1015;49.756;6.994;2023-04-24T04:54:44;9.43;;;6.60;;
2021;SDS011;1015;49.756;6.994;2023-04-24T04:57:11;9.07;;;6.57;;
2021;SDS011;1015;49.756;6.994;2023-04-24T04:59:38;7.10;;;6.17;;
2021;SDS011;1015;49.756;6.994;2023-04-24T05:02:06;7.37;;;6.37;;
2021;SDS011;1015;49.756;6.994;2023-04-24T05:04:33;8.97;;;6.87;;
2021;SDS011;1015;49.756;6.994;2023-04-24T05:07:01;7.00;;;6.03;;
2021;SDS011;1015;49.756;6.994;2023-04-24T05:09:29;7.07;;;6.23;;
2021;SDS011;1015;49.756;6.994;2023-04-24T05:11:56;7.90;;;6.00;;
2021;SDS011;1015;49.756;6.994;2023-04-24T05:14:23;6.33;;;5.60;;
2021;SDS011;1015;49.756;6.994;2023-04-24T05:16:50;10.10;;;6.50;;
2021;SDS011;1015;49.756;6.994;2023-04-24T05:19:17;9.73;;;6.10;;
2021;SDS011;1015;49.756;6.994;2023-04-24T05:21:45;6.67;;;5.97;;
2021;SDS011;1015;49.756;6.994;2023-04-24T05:24:13;6.63;;;5.90;;
2021;SDS011;1015;49.756;6.994;2023-04-24T05:26:40;7.63;;;6.87;;
2021;SDS011;1015;49.756;6.994;2023-04-24T05:29:07;9.83;;;7.50;;
2021;SDS011;1015;49.756;6.994;2023-04-24T05:31:35;10.90;;;7.37;;
2021;SDS011;1015;49.756;6.994;2023-04-24T05:34:02;9.07;;;7.97;;
2021;SDS011;1015;49.756;6.994;2023-04-24T05:36:30;8.97;;;6.80;;
2021;SDS011;1015;49.756;6.994;2023-04-24T05:38:57;11.10;;;7.50;;
2021;SDS011;1015;49.756;6.994;2023-04-24T05:41:26;8.97;;;6.70;;
2021;SDS011;1015;49.756;6.994;2023-04-24T05:43:53;8.87;;;7.20;;
2021;SDS011;1015;49.756;6.994;2023-04-24T05:46:20;9.30;;;7.30;;
2021;SDS011;1015;49.756;6.994;2023-04-24T05:48:47;9.37;;;7.60;;
2021;SDS011;1015;49.756;6.994;2023-04-24T05:51:14;12.70;;;7.77;;
2021;SDS011;1015;49.756;6.994;2023-04-24T05:53:42;9.37;;;8.00;;
2021;SDS011;1015;49.756;6.994;2023-04-24T05:56:09;11.27;;;7.87;;
2021;SDS011;1015;49.756;6.994;2023-04-24T05:58:38;12.07;;;8.50;;
2021;SDS011;1015;49.756;6.994;2023-04-24T06:01:05;11.33;;;8.93;;
2021;SDS011;1015;49.756;6.994;2023-04-24T06:03:33;8.50;;;7.10;;
2021;SDS011;1015;49.756;6.994;2023-04-24T06:06:00;10.10;;;7.73;;
2021;SDS011;1015;49.756;6.994;2023-04-24T06:08:27;7.70;;;6.60;;
2021;SDS011;1015;49.756;6.994;2023-04-24T06:10:54;7.20;;;6.50;;
2021;SDS011;1015;49.756;6.994;2023-04-24T06:13:21;9.53;;;7.10;;
2021;SDS011;1015;49.756;6.994;2023-04-24T06:15:50;9.63;;;7.13;;
2021;SDS011;1015;49.756;6.994;2023-04-24T06:18:17;8.17;;;6.50;;
2021;SDS011;1015;49.756;6.994;2023-04-24T06:20:44;7.90;;;5.80;;
2021;SDS011;1015;49.756;6.994;2023-04-24T06:23:12;6.70;;;5.80;;
2021;SDS011;1015;49.756;6.994;2023-04-24T06:25:39;7.50;;;5.87;;
2021;SDS011;1015;49.756;6.994;2023-04-24T06:28:06;10.43;;;7.10;;
2021;SDS011;1015;49.756;6.994;2023-04-24T06:30:33;8.40;;;5.90;;
2021;SDS011;1015;49.756;6.994;2023-04-24T06:33:02;7.60;;;6.30;;
2021;SDS011;1015;49.756;6.994;2023-04-24T06:35:29;8.00;;;6.23;;
2021;SDS011;1015;49.756;6.994;2023-04-24T06:37:56;8.50;;;6.37;;
2021;SDS011;1015;49.756;6.994;2023-04-24T06:40:23;9.27;;;7.00;;
2021;SDS011;1015;49.756;6.994;2023-04-24T06:42:51;8.57;;;6.77;;
2021;SDS011;1015;49.756;6.994;2023-04-24T06:45:18;9.00;;;6.90;;
2021;SDS011;1015;49.756;6.994;2023-04-24T06:47:45;8.83;;;6.63;;
2021;SDS011;1015;49.756;6.994;2023-04-24T06:50:14;10.43;;;7.10;;
2021;SDS011;1015;49.756;6.994;2023-04-24T06:52:41;10.33;;;7.87;;
2021;SDS011;1015;49.756;6.994;2023-04-24T06:55:09;9.30;;;6.60;;
2021;SDS011;1015;49.756;6.994;2023-04-24T06:57:37;8.60;;;7.23;;
2021;SDS011;1015;49.756;6.994;2023-04-24T07:00:04;7.83;;;6.90;;
2021;SDS011;1015;49.756;6.994;2023-04-24T07:02:32;8.43;;;7.10;;
2021;SDS011;1015;49.756;6.994;2023-04-24T07:04:59;8.03;;;6.13;;
2021;SDS011;1015;49.756;6.994;2023-04-24T07:07:27;8.27;;;6.70;;
2021;SDS011;1015;49.756;6.994;2023-04-24T07:09:55;6.83;;;5.70;;
2021;SDS011;1015;49.756;6.994;2023-04-24T07:12:22;7.13;;;6.17;;
2021;SDS011;1015;49.756;6.994;2023-04-24T07:14:50;6.67;;;6.00;;
2021;SDS011;1015;49.756;6.994;2023-04-24T07:17:17;8.77;;;6.03;;
2021;SDS011;1015;49.756;6.994;2023-04-24T07:19:44;7.00;;;5.80;;
2021;SDS011;1015;49.756;6.994;2023-04-24T07:22:11;8.13;;;6.60;;
2021;SDS011;1015;49.756;6.994;2023-04-24T07:24:43;8.80;;;6.43;;
2021;SDS011;1015;49.756;6.994;2023-04-24T07:27:10;9.23;;;6.33;;
2021;SDS011;1015;49.756;6.994;2023-04-24T07:29:39;8.93;;;5.60;;
2021;SDS011;1015;49.756;6.994;2023-04-24T07:32:06;7.87;;;6.27;;
2021;SDS011;1015;49.756;6.994;2023-04-24T07:34:34;8.00;;;5.90;;
2021;SDS011;1015;49.756;6.994;2023-04-24T07:37:01;8.07;;;6.63;;
2021;SDS011;1015;49.756;6.994;2023-04-24T07:39:29;8.17;;;6.57;;
2021;SDS011;1015;49.756;6.994;2023-04-24T07:41:58;7.53;;;6.40;;
2021;SDS011;1015;49.756;6.994;2023-04-24T07:44:26;8.23;;;6.40;;
2021;SDS011;1015;49.756;6.994;2023-04-24T07:46:53;7.97;;;6.57;;
2021;SDS011;1015;49.756;6.994;2023-04-24T07:49:21;7.00;;;6.17;;
2021;SDS011;1015;49.756;6.994;2023-04-24T07:51:48;8.00;;;5.80;;
2021;SDS011;1015;49.756;6.994;2023-04-24T07:54:15;7.47;;;6.10;;
2021;SDS011;1015;49.756;6.994;2023-04-24T07:56:43;6.80;;;5.47;;
2021;SDS011;1015;49.756;6.994;2023-04-24T07:59:11;8.30;;;5.93;;
2021;SDS011;1015;49.756;6.994;2023-04-24T08:01:38;7.37;;;5.90;;
2021;SDS011;1015;49.756;6.994;2023-04-24T08:04:06;6.53;;;5.77;;
2021;SDS011;1015;49.756;6.994;2023-04-24T08:06:33;5.80;;;5.00;;
2021;SDS011;1015;49.756;6.994;2023-04-24T08:09:00;7.03;;;5.53;;
2021;SDS011;1015;49.756;6.994;2023-04-24T08:11:27;5.70;;;4.17;;
2021;SDS011;1015;49.756;6.994;2023-04-24T08:13:54;4.50;;;3.90;;
2021;SDS011;1015;49.756;6.994;2023-04-24T08:16:23;5.20;;;4.23;;
2021;SDS011;1015;49.756;6.994;2023-04-24T08:18:50;5.43;;;4.20;;
2021;SDS011;1015;49.756;6.994;2023-04-24T08:21:18;8.50;;;4.80;;
2021;SDS011;1015;49.756;6.994;2023-04-24T08:23:45;7.07;;;5.27;;
2021;SDS011;1015;49.756;6.994;2023-04-24T08:26:13;7.10;;;5.37;;
2021;SDS011;1015;49.756;6.994;2023-04-24T08:28:40;5.67;;;5.07;;
2021;SDS011;1015;49.756;6.994;2023-04-24T08:31:07;6.53;;;5.83;;
2021;SDS011;1015;49.756;6.994;2023-04-24T08:33:36;7.47;;;5.40;;
2021;SDS011;1015;49.756;6.994;2023-04-24T08:36:04;7.93;;;5.70;;
2021;SDS011;1015;49.756;6.994;2023-04-24T08:38:31;7.40;;;5.33;;
2021;SDS011;1015;49.756;6.994;2023-04-24T08:40:59;6.60;;;5.63;;
2021;SDS011;1015;49.756;6.994;2023-04-24T08:43:26;6.83;;;6.00;;
2021;SDS011;1015;49.756;6.994;2023-04-24T08:45:55;6.93;;;6.10;;
2021;SDS011;1015;49.756;6.994;2023-04-24T08:48:22;8.40;;;6.50;;
2021;SDS011;1015;49.756;6.994;2023-04-24T08:50:51;7.83;;;6.30;;
2021;SDS011;1015;49.756;6.994;2023-04-24T08:53:18;10.13;;;6.33;;
2021;SDS011;1015;49.756;6.994;2023-04-24T08:55:46;8.53;;;6.50;;
2021;SDS011;1015;49.756;6.994;2023-04-24T08:58:14;7.17;;;5.10;;
2021;SDS011;1015;49.756;6.994;2023-04-24T09:00:42;5.97;;;4.33;;
2021;SDS011;1015;49.756;6.994;2023-04-24T09:03:12;5.33;;;3.60;;
2021;SDS011;1015;49.756;6.994;2023-04-24T09:05:40;8.47;;;4.67;;
2021;SDS011;1015;49.756;6.994;2023-04-24T09:08:12;6.10;;;4.00;;
2021;SDS011;1015;49.756;6.994;2023-04-24T09:10:40;4.80;;;3.60;;
2021;SDS011;1015;49.756;6.994;2023-04-24T09:13:07;7.40;;;4.67;;
2021;SDS011;1015;49.756;6.994;2023-04-24T09:15:35;4.53;;;3.83;;
2021;SDS011;1015;49.756;6.994;2023-04-24T09:18:03;5.40;;;3.93;;
2021;SDS011;1015;49.756;6.994;2023-04-24T09:20:31;5.40;;;3.80;;
2021;SDS011;1015;49.756;6.994;2023-04-24T09:22:58;4.20;;;2.83;;
2021;SDS011;1015;49.756;6.994;2023-04-24T09:25:32;6.07;;;3.77;;
2021;SDS011;1015;49.756;6.994;2023-04-24T09:28:00;4.77;;;3.27;;
2021;SDS011;1015;49.756;6.994;2023-04-24T09:30:28;8.33;;;3.70;;
2021;SDS011;1015;49.756;6.994;2023-04-24T09:35:40;6.60;;;3.90;;
2021;SDS011;1015;49.756;6.994;2023-04-24T09:38:08;6.43;;;4.43;;
2021;SDS011;1015;49.756;6.994;2023-04-24T09:40:37;5.60;;;4.20;;
2021;SDS011;1015;49.756;6.994;2023-04-24T09:43:05;8.80;;;5.40;;
2021;SDS011;1015;49.756;6.994;2023-04-24T09:45:37;8.67;;;4.77;;
2021;SDS011;1015;49.756;6.994;2023-04-24T09:48:05;7.63;;;5.20;;
2021;SDS011;1015;49.756;6.994;2023-04-24T09:50:32;9.40;;;5.87;;
2021;SDS011;1015;49.756;6.994;2023-04-24T09:53:01;8.40;;;5.27;;
2021;SDS011;1015;49.756;6.994;2023-04-24T09:55:29;10.10;;;5.60;;
2021;SDS011;1015;49.756;6.994;2023-04-24T09:57:58;6.47;;;4.97;;
2021;SDS011;1015;49.756;6.994;2023-04-24T10:00:25;7.63;;;5.37;;
2021;SDS011;1015;49.756;6.994;2023-04-24T10:02:56;8.20;;;5.50;;
2021;SDS011;1015;49.756;6.994;2023-04-24T10:05:24;7.90;;;4.80;;
2021;SDS011;1015;49.756;6.994;2023-04-24T10:07:52;10.83;;;6.80;;
2021;SDS011;1015;49.756;6.994;2023-04-24T10:10:23;12.50;;;7.17;;
2021;SDS011;1015;49.756;6.994;2023-04-24T10:12:50;7.10;;;4.67;;
2021;SDS011;1015;49.756;6.994;2023-04-24T10:15:19;9.83;;;7.10;;
2021;SDS011;1015;49.756;6.994;2023-04-24T10:17:47;7.30;;;5.60;;
2021;SDS011;1015;49.756;6.994;2023-04-24T10:20:18;9.50;;;6.50;;
2021;SDS011;1015;49.756;6.994;2023-04-24T10:22:46;8.77;;;6.17;;
2021;SDS011;1015;49.756;6.994;2023-04-24T10:25:16;9.00;;;6.20;;
2021;SDS011;1015;49.756;6.994;2023-04-24T10:27:44;11.10;;;6.40;;
2021;SDS011;1015;49.756;6.994;2023-04-24T10:30:12;11.30;;;6.57;;
2021;SDS011;1015;49.756;6.994;2023-04-24T10:32:41;9.00;;;6.50;;
2021;SDS011;1015;49.756;6.994;2023-04-24T10:35:08;8.80;;;6.33;;
2021;SDS011;1015;49.756;6.994;2023-04-24T10:37:37;12.83;;;7.80;;
2021;SDS011;1015;49.756;6.994;2023-04-24T10:40:05;9.60;;;6.97;;
2021;SDS011;1015;49.756;6.994;2023-04-24T10:42:34;9.67;;;7.00;;
2021;SDS011;1015;49.756;6.994;2023-04-24T10:45:04;12.20;;;6.73;;
2021;SDS011;1015;49.756;6.994;2023-04-24T10:47:39;11.20;;;6.87;;
2021;SDS011;1015;49.756;6.994;2023-04-24T10:50:09;9.40;;;6.30;;
2021;SDS011;1015;49.756;6.994;2023-04-24T10:52:45;8.20;;;5.60;;
2021;SDS011;1015;49.756;6.994;2023-04-24T10:55:13;7.60;;;5.60;;
2021;SDS011;1015;49.756;6.994;2023-04-24T11:00:24;8.23;;;4.90;;
2021;SDS011;1015;49.756;6.994;2023-04-24T11:02:52;6.70;;;4.70;;
2021;SDS011;1015;49.756;6.994;2023-04-24T11:05:21;9.07;;;5.10;;
2021;SDS011;1015;49.756;6.994;2023-04-24T11:08:09;5.80;;;4.10;;
2021;SDS011;1015;49.756;6.994;2023-04-24T11:10:38;5.33;;;3.90;;
2021;SDS011;1015;49.756;6.994;2023-04-24T11:13:05;6.70;;;4.23;;
2021;SDS011;1015;49.756;6.994;2023-04-24T11:15:33;5.70;;;4.00;;
2021;SDS011;1015;49.756;6.994;2023-04-24T11:18:00;5.03;;;3.93;;
2021;SDS011;1015;49.756;6.994;2023-04-24T11:20:29;6.57;;;4.20;;
2021;SDS011;1015;49.756;6.994;2023-04-24T11:22:57;5.23;;;3.70;;
2021;SDS011;1015;49.756;6.994;2023-04-24T11:25:30;5.33;;;3.37;;
2021;SDS011;1015;49.756;6.994;2023-04-24T11:28:02;6.20;;;4.40;;
2021;SDS011;1015;49.756;6.994;2023-04-24T11:30:30;5.87;;;3.60;;
2021;SDS011;1015;49.756;6.994;2023-04-24T11:33:01;4.37;;;3.83;;
2021;SDS011;1015;49.756;6.994;2023-04-24T11:35:30;5.70;;;3.87;;
2021;SDS011;1015;49.756;6.994;2023-04-24T11:38:02;6.50;;;3.30;;
2021;SDS011;1015;49.756;6.994;2023-04-24T11:40:30;5.40;;;3.87;;
2021;SDS011;1015;49.756;6.994;2023-04-24T11:42:59;6.97;;;4.17;;
2021;SDS011;1015;49.756;6.994;2023-04-24T11:45:27;5.67;;;3.57;;
2021;SDS011;1015;49.756;6.994;2023-04-24T11:47:55;7.20;;;3.63;;
2021;SDS011;1015;49.756;6.994;2023-04-24T11:50:24;4.27;;;3.20;;
2021;SDS011;1015;49.756;6.994;2023-04-24T11:52:54;4.53;;;3.03;;
2021;SDS011;1015;49.756;6.994;2023-04-24T11:55:28;4.80;;;3.43;;
2021;SDS011;1015;49.756;6.994;2023-04-24T11:57:56;6.50;;;4.17;;
2021;SDS011;1015;49.756;6.994;2023-04-24T12:00:24;5.13;;;3.50;;
2021;SDS011;1015;49.756;6.994;2023-04-24T12:03:02;6.60;;;3.40;;
2021;SDS011;1015;49.756;6.994;2023-04-24T12:05:30;5.93;;;3.50;;
2021;SDS011;1015;49.756;6.994;2023-04-24T12:07:59;4.20;;;3.07;;
2021;SDS011;1015;49.756;6.994;2023-04-24T12:10:27;4.10;;;3.33;;
2021;SDS011;1015;49.756;6.994;2023-04-24T12:12:56;10.17;;;3.43;;
2021;SDS011;1015;49.756;6.994;2023-04-24T12:15:23;4.10;;;3.53;;
2021;SDS011;1015;49.756;6.994;2023-04-24T12:17:51;4.40;;;3.43;;
2021;SDS011;1015;49.756;6.994;2023-04-24T12:20:23;105.83;;;20.57;;
2021;SDS011;1015;49.756;6.994;2023-04-24T12:22:51;6.50;;;4.00;;
2021;SDS011;1015;49.756;6.994;2023-04-24T12:25:21;6.93;;;3.53;;
2021;SDS011;1015;49.756;6.994;2023-04-24T12:27:52;4.73;;;3.30;;
2021;SDS011;1015;49.756;6.994;2023-04-24T12:30:19;8.33;;;4.80;;
2021;SDS011;1015;49.756;6.994;2023-04-24T12:32:47;4.53;;;3.43;;
2021;SDS011;1015;49.756;6.994;2023-04-24T12:35:18;5.00;;;3.87;;
2021;SDS011;1015;49.756;6.994;2023-04-24T12:37:46;30.10;;;7.80;;
2021;SDS011;1015;49.756;6.994;2023-04-24T12:40:13;6.53;;;4.47;;
2021;SDS011;1015;49.756;6.994;2023-04-24T12:42:43;6.80;;;4.53;;
2021;SDS011;1015;49.756;6.994;2023-04-24T12:45:10;7.27;;;5.07;;
2021;SDS011;1015;49.756;6.994;2023-04-24T12:47:38;9.33;;;6.00;;
2021;SDS011;1015;49.756;6.994;2023-04-24T12:50:06;7.20;;;5.00;;
2021;SDS011;1015;49.756;6.994;2023-04-24T12:52:34;6.97;;;4.53;;
2021;SDS011;1015;49.756;6.994;2023-04-24T12:55:02;19.97;;;6.93;;
2021;SDS011;1015;49.756;6.994;2023-04-24T12:57:30;7.93;;;6.07;;
2021;SDS011;1015;49.756;6.994;2023-04-24T12:59:58;9.57;;;6.97;;
2021;SDS011;1015;49.756;6.994;2023-04-24T13:02:26;9.03;;;6.83;;
2021;SDS011;1015;49.756;6.994;2023-04-24T13:04:54;12.53;;;6.90;;
2021;SDS011;1015;49.756;6.994;2023-04-24T13:07:21;8.77;;;6.90;;
2021;SDS011;1015;49.756;6.994;2023-04-24T13:09:49;9.63;;;7.53;;
2021;SDS011;1015;49.756;6.994;2023-04-24T13:12:16;9.20;;;7.20;;
2021;SDS011;1015;49.756;6.994;2023-04-24T13:14:44;10.63;;;6.63;;
2021;SDS011;1015;49.756;6.994;2023-04-24T13:17:13;9.67;;;7.10;;
2021;SDS011;1015;49.756;6.994;2023-04-24T13:19:41;10.50;;;7.90;;
2021;SDS011;1015;49.756;6.994;2023-04-24T13:22:09;9.50;;;7.10;;
2021;SDS011;1015;49.756;6.994;2023-04-24T13:24:36;9.00;;;7.00;;
2021;SDS011;1015;49.756;6.994;2023-04-24T13:27:05;9.40;;;7.70;;
2021;SDS011;1015;49.756;6.994;2023-04-24T13:29:33;9.63;;;7.33;;
2021;SDS011;1015;49.756;6.994;2023-04-24T13:32:00;10.00;;;7.73;;
2021;SDS011;1015;49.756;6.994;2023-04-24T13:34:28;9.53;;;7.77;;
2021;SDS011;1015;49.756;6.994;2023-04-24T13:36:56;10.27;;;7.80;;
2021;SDS011;1015;49.756;6.994;2023-04-24T13:39:23;9.10;;;7.90;;
2021;SDS011;1015;49.756;6.994;2023-04-24T13:41:51;11.30;;;7.67;;
2021;SDS011;1015;49.756;6.994;2023-04-24T13:44:19;9.23;;;7.57;;
2021;SDS011;1015;49.756;6.994;2023-04-24T13:46:47;9.23;;;7.63;;
2021;SDS011;1015;49.756;6.994;2023-04-24T13:49:15;10.10;;;7.90;;
2021;SDS011;1015;49.756;6.994;2023-04-24T13:51:43;11.40;;;8.07;;
2021;SDS011;1015;49.756;6.994;2023-04-24T13:54:11;10.87;;;7.47;;
2021;SDS011;1015;49.756;6.994;2023-04-24T13:56:39;9.20;;;7.47;;
2021;SDS011;1015;49.756;6.994;2023-04-24T13:59:06;7.93;;;6.80;;
2021;SDS011;1015;49.756;6.994;2023-04-24T14:01:33;9.73;;;7.60;;
2021;SDS011;1015;49.756;6.994;2023-04-24T14:04:00;7.77;;;6.50;;
2021;SDS011;1015;49.756;6.994;2023-04-24T14:06:28;7.37;;;6.47;;
2021;SDS011;1015;49.756;6.994;2023-04-24T14:08:57;6.80;;;6.10;;
2021;SDS011;1015;49.756;6.994;2023-04-24T14:11:25;7.70;;;6.90;;
2021;SDS011;1015;49.756;6.994;2023-04-24T14:13:53;10.00;;;7.23;;
2021;SDS011;1015;49.756;6.994;2023-04-24T14:16:22;7.20;;;6.50;;
2021;SDS011;1015;49.756;6.994;2023-04-24T14:18:49;8.60;;;6.77;;
2021;SDS011;1015;49.756;6.994;2023-04-24T14:21:17;7.50;;;6.70;;
2021;SDS011;1015;49.756;6.994;2023-04-24T14:23:44;7.83;;;6.37;;
2021;SDS011;1015;49.756;6.994;2023-04-24T14:26:12;7.60;;;5.93;;
2021;SDS011;1015;49.756;6.994;2023-04-24T14:28:40;6.80;;;5.80;;
2021;SDS011;1015;49.756;6.994;2023-04-24T14:31:07;7.00;;;5.90;;
2021;SDS011;1015;49.756;6.994;2023-04-24T14:33:34;7.47;;;5.97;;
2021;SDS011;1015;49.756;6.994;2023-04-24T14:36:02;7.57;;;6.10;;
2021;SDS011;1015;49.756;6.994;2023-04-24T14:38:30;6.73;;;5.50;;
2021;SDS011;1015;49.756;6.994;2023-04-24T14:40:57;7.73;;;6.30;;
2021;SDS011;1015;49.756;6.994;2023-04-24T14:43:26;7.90;;;5.60;;
2021;SDS011;1015;49.756;6.994;2023-04-24T14:45:53;6.27;;;5.70;;
2021;SDS011;1015;49.756;6.994;2023-04-24T14:48:20;7.40;;;5.77;;
2021;SDS011;1015;49.756;6.994;2023-04-24T14:50:48;7.13;;;5.80;;
2021;SDS011;1015;49.756;6.994;2023-04-24T14:53:15;6.93;;;6.23;;
2021;SDS011;1015;49.756;6.994;2023-04-24T14:55:42;9.47;;;6.37;;
2021;SDS011;1015;49.756;6.994;2023-04-24T14:58:09;7.67;;;6.30;;
2021;SDS011;1015;49.756;6.994;2023-04-24T15:00:38;9.00;;;7.00;;
2021;SDS011;1015;49.756;6.994;2023-04-24T15:03:05;6.90;;;5.80;;
2021;SDS011;1015;49.756;6.994;2023-04-24T15:05:33;12.20;;;6.30;;
2021;SDS011;1015;49.756;6.994;2023-04-24T15:08:00;8.07;;;5.97;;
2021;SDS011;1015;49.756;6.994;2023-04-24T15:10:27;8.33;;;6.50;;
2021;SDS011;1015;49.756;6.994;2023-04-24T15:12:55;8.47;;;7.40;;
2021;SDS011;1015;49.756;6.994;2023-04-24T15:15:22;9.37;;;7.23;;
2021;SDS011;1015;49.756;6.994;2023-04-24T15:17:51;14.80;;;8.10;;
2021;SDS011;1015;49.756;6.994;2023-04-24T15:20:18;11.30;;;8.30;;
2021;SDS011;1015;49.756;6.994;2023-04-24T15:22:45;10.80;;;8.00;;